Time;durP1;ratioP1;P1;durP2;ratioP2;P2;SDS_P1;SDS_P2;PMS_P1;PMS_P2;Temp;Humidity;BMP_temperature;BMP_pressure;BME280_temperature;BME280_humidity;BME280_pressure;Samples;Min_cycle;Max_cycle;Signal;HPM_P1;HPM_P2
2023/12/02 00:00:17;;;;;;;113.47;10.55;;;;;;;1.46;100.00;96970.50;4453009;32;20105;-72
2023/12/02 00:02:46;;;;;;;111.97;8.32;;;;;;;1.43;100.00;96987.06;4452880;32;20181;-72
2023/12/02 00:05:14;;;;;;;90.87;8.73;;;;;;;1.47;100.00;96979.88;4452616;32;20111;-72
2023/12/02 00:07:43;;;;;;;81.53;8.43;;;;;;;1.48;100.00;96984.91;4452869;32;20105;-72
2023/12/02 00:10:11;;;;;;;114.55;7.05;;;;;;;1.49;100.00;96971.06;4438836;32;20521;-72
2023/12/02 00:12:40;;;;;;;101.93;7.03;;;;;;;1.60;100.00;96962.44;4452820;32;20575;-72
2023/12/02 00:15:08;;;;;;;75.40;8.07;;;;;;;1.57;100.00;96963.50;4453068;32;20117;-72
2023/12/02 00:17:36;;;;;;;215.43;14.40;;;;;;;1.62;100.00;96970.06;4460524;32;20108;-72
2023/12/02 00:20:06;;;;;;;188.25;12.95;;;;;;;1.61;100.00;96976.19;4468170;32;20100;-72
2023/12/02 00:22:34;;;;;;;123.03;10.90;;;;;;;1.57;100.00;96979.00;4468209;32;20088;-72
2023/12/02 00:25:02;;;;;;;136.88;10.48;;;;;;;1.55;100.00;96993.78;4468180;32;20127;-72
2023/12/02 00:27:31;;;;;;;112.25;11.02;;;;;;;1.58;100.00;96980.66;4468041;32;20474;-72
2023/12/02 00:29:58;;;;;;;109.63;10.15;;;;;;;1.63;100.00;96963.97;4455162;32;20216;-72
2023/12/02 00:32:26;;;;;;;155.98;11.05;;;;;;;1.61;100.00;96974.41;4452618;32;20607;-72
2023/12/02 00:34:56;;;;;;;148.98;9.60;;;;;;;1.54;100.00;96973.28;4452356;32;20155;-72
2023/12/02 00:37:25;;;;;;;131.80;9.73;;;;;;;1.56;100.00;96971.38;4452244;32;20105;-72
2023/12/02 00:39:53;;;;;;;129.85;9.00;;;;;;;1.61;100.00;96958.13;4454509;32;20086;-72
2023/12/02 00:42:20;;;;;;;77.65;8.23;;;;;;;1.64;100.00;96953.53;4454358;32;20140;-72
2023/12/02 00:44:48;;;;;;;152.57;9.45;;;;;;;1.63;100.00;96963.97;4454560;32;20480;-72
2023/12/02 00:47:16;;;;;;;133.27;13.02;;;;;;;1.64;100.00;96986.25;4454385;32;20119;-72
2023/12/02 00:49:45;;;;;;;122.30;10.05;;;;;;;1.63;100.00;96982.84;4454482;32;20484;-72
2023/12/02 00:52:13;;;;;;;109.22;11.63;;;;;;;1.64;100.00;96963.84;4454543;32;20120;-72
2023/12/02 00:54:44;;;;;;;162.52;13.23;;;;;;;1.70;100.00;96967.69;4460542;32;20144;-72
2023/12/02 00:57:13;;;;;;;164.65;12.10;;;;;;;1.68;100.00;96966.97;4468239;32;20521;-72
2023/12/02 00:59:41;;;;;;;105.78;8.27;;;;;;;1.71;100.00;96971.88;4469832;32;20097;-72
2023/12/02 01:02:10;;;;;;;163.48;12.60;;;;;;;1.78;100.00;96978.19;4469796;32;20347;-72
2023/12/02 01:04:37;;;;;;;128.95;10.60;;;;;;;1.71;100.00;96977.06;4469907;32;20444;-72
2023/12/02 01:07:06;;;;;;;107.37;9.35;;;;;;;1.72;100.00;96965.78;4469866;32;20402;-72
2023/12/02 01:09:33;;;;;;;231.98;13.95;;;;;;;1.72;100.00;96964.03;4469856;32;20133;-72
2023/12/02 01:12:01;;;;;;;281.70;15.40;;;;;;;1.71;100.00;96956.41;4470124;32;20165;-72
2023/12/02 01:14:29;;;;;;;152.10;11.27;;;;;;;1.77;100.00;96958.47;4469917;32;20092;-72
2023/12/02 01:16:58;;;;;;;197.80;13.80;;;;;;;1.73;100.00;96957.12;4465798;32;20101;-72
2023/12/02 01:19:26;;;;;;;233.13;17.92;;;;;;;1.68;100.00;96959.25;4439872;32;20119;-72
2023/12/02 01:21:54;;;;;;;236.80;13.68;;;;;;;1.69;100.00;96951.38;4454299;32;20097;-72
2023/12/02 01:24:22;;;;;;;221.62;13.00;;;;;;;1.67;100.00;96957.63;4454125;32;20104;-72
2023/12/02 01:26:49;;;;;;;190.57;14.27;;;;;;;1.74;100.00;96951.00;4454284;32;20089;-72
2023/12/02 01:29:17;;;;;;;208.90;13.02;;;;;;;1.71;100.00;96946.06;4454136;32;20123;-72
2023/12/02 01:31:45;;;;;;;250.23;12.05;;;;;;;1.72;100.00;96953.69;4454062;32;20172;-72
2023/12/02 01:34:13;;;;;;;189.80;13.43;;;;;;;1.70;100.00;96947.84;4454322;32;20088;-72
2023/12/02 01:36:42;;;;;;;231.87;15.27;;;;;;;1.73;100.00;96931.31;4454127;32;20124;-72
2023/12/02 01:39:12;;;;;;;178.50;10.38;;;;;;;1.76;100.00;96915.56;4454401;32;20600;-72
2023/12/02 01:41:40;;;;;;;325.80;20.88;;;;;;;1.73;100.00;96924.38;4454218;32;20154;-72
2023/12/02 01:44:11;;;;;;;235.05;14.02;;;;;;;1.73;100.00;96936.47;4454015;32;20097;-72
2023/12/02 01:46:41;;;;;;;205.05;10.90;;;;;;;1.68;100.00;96938.59;4454260;32;20359;-72
2023/12/02 01:49:10;;;;;;;174.18;13.30;;;;;;;1.69;100.00;96941.03;4453637;32;20116;-72
2023/12/02 01:51:38;;;;;;;259.95;15.77;;;;;;;1.71;100.00;96939.16;4440329;32;20123;-72
2023/12/02 01:54:07;;;;;;;196.23;11.63;;;;;;;1.72;100.00;96925.31;4439925;32;20116;-72
2023/12/02 01:56:40;;;;;;;117.20;9.77;;;;;;;1.89;100.00;96933.41;4453962;32;20150;-72
2023/12/02 01:59:11;;;;;;;214.20;13.18;;;;;;;1.89;100.00;96931.66;4454002;32;20134;-72
2023/12/02 02:01:39;;;;;;;225.23;13.27;;;;;;;1.85;100.00;96922.53;4453993;32;20158;-72
2023/12/02 02:04:07;;;;;;;193.20;12.15;;;;;;;1.88;100.00;96927.44;4453924;32;20128;-72
2023/12/02 02:06:36;;;;;;;138.15;10.02;;;;;;;1.86;100.00;96929.34;4453933;32;20190;-72
2023/12/02 02:09:05;;;;;;;145.95;9.60;;;;;;;1.90;100.00;96928.13;4454011;32;20756;-72
2023/12/02 02:11:33;;;;;;;185.07;12.07;;;;;;;1.94;100.00;96895.94;4454031;32;20110;-72
2023/12/02 02:14:01;;;;;;;298.50;15.07;;;;;;;1.89;100.00;96885.19;4453815;32;20114;-72
2023/12/02 02:16:28;;;;;;;261.62;16.17;;;;;;;1.86;100.00;96895.78;4454752;32;20109;-72
2023/12/02 02:18:56;;;;;;;184.45;11.85;;;;;;;1.84;100.00;96882.16;4469417;32;20404;-72
2023/12/02 02:21:24;;;;;;;276.23;14.30;;;;;;;1.83;100.00;96903.75;4469610;32;20089;-72
2023/12/02 02:23:52;;;;;;;204.50;12.43;;;;;;;1.82;100.00;96898.72;4469596;32;20105;-72
2023/12/02 02:26:20;;;;;;;172.62;11.05;;;;;;;1.81;100.00;96891.94;4469313;32;20084;-72
2023/12/02 02:28:48;;;;;;;172.18;10.07;;;;;;;1.84;100.00;96897.66;4464074;32;20100;-72
2023/12/02 02:31:15;;;;;;;259.98;14.20;;;;;;;1.90;100.00;96910.03;4453781;32;20635;-72
2023/12/02 02:33:43;;;;;;;176.35;10.60;;;;;;;1.87;100.00;96902.56;4453792;32;20101;-72
2023/12/02 02:36:12;;;;;;;195.82;14.73;;;;;;;1.95;100.00;96883.84;4453746;32;20089;-72
2023/12/02 02:38:40;;;;;;;251.65;12.93;;;;;;;1.92;100.00;96884.09;4454125;32;20437;-72
2023/12/02 02:41:08;;;;;;;225.07;12.93;;;;;;;1.83;100.00;96896.00;4439742;32;20430;-72
2023/12/02 02:43:35;;;;;;;121.00;9.05;;;;;;;1.86;100.00;96897.53;4453984;32;20123;-72
2023/12/02 02:46:03;;;;;;;244.45;13.50;;;;;;;1.90;100.00;96901.50;4453702;32;20455;-72
2023/12/02 02:48:31;;;;;;;142.37;9.52;;;;;;;1.80;100.00;96880.78;4453764;32;20116;-72
2023/12/02 02:51:00;;;;;;;284.13;15.52;;;;;;;1.91;100.00;96888.44;4453618;32;20108;-72
2023/12/02 02:53:28;;;;;;;270.02;17.00;;;;;;;1.95;100.00;96894.16;4453877;32;20093;-72
2023/12/02 02:55:56;;;;;;;186.43;13.32;;;;;;;1.97;100.00;96902.62;4453497;32;20119;-72
2023/12/02 02:58:23;;;;;;;252.38;13.73;;;;;;;1.89;100.00;96900.69;4453742;32;20115;-72
2023/12/02 03:00:52;;;;;;;159.35;11.18;;;;;;;1.95;100.00;96896.75;4452726;32;20093;-72
2023/12/02 03:03:20;;;;;;;214.60;13.50;;;;;;;1.98;100.00;96890.50;4453677;32;20101;-72
2023/12/02 03:05:49;;;;;;;294.75;13.68;;;;;;;1.88;100.00;96882.72;4453534;32;20105;-72
2023/12/02 03:08:16;;;;;;;301.73;15.23;;;;;;;1.90;100.00;96880.84;4439761;32;20105;-72
2023/12/02 03:10:47;;;;;;;209.43;12.73;;;;;;;1.87;100.00;96871.56;4453530;32;20146;-72
2023/12/02 03:13:15;;;;;;;152.12;10.27;;;;;;;2.02;100.00;96873.81;4453778;32;20516;-72
2023/12/02 03:15:43;;;;;;;135.18;9.50;;;;;;;2.01;100.00;96864.44;4453514;32;20093;-72
2023/12/02 03:18:12;;;;;;;227.45;13.02;;;;;;;1.95;100.00;96870.91;4465237;32;20117;-72
2023/12/02 03:20:39;;;;;;;275.80;15.70;;;;;;;1.86;100.00;96887.19;4468992;32;20081;-72
2023/12/02 03:23:07;;;;;;;141.73;10.32;;;;;;;1.91;100.00;96878.13;4469084;32;20113;-72
2023/12/02 03:25:35;;;;;;;200.25;12.95;;;;;;;1.90;100.00;96870.50;4469240;32;20112;-72
2023/12/02 03:28:03;;;;;;;176.15;11.32;;;;;;;2.06;100.00;96886.34;4468511;32;20081;-72
2023/12/02 03:30:30;;;;;;;98.50;7.53;;;;;;;2.08;100.00;96899.13;4453534;32;20105;-72
2023/12/02 03:32:59;;;;;;;164.45;10.65;;;;;;;2.03;100.00;96890.94;4453392;32;20128;-72
2023/12/02 03:35:26;;;;;;;248.18;15.07;;;;;;;2.01;100.00;96875.56;4453257;32;20196;-72
2023/12/02 03:37:54;;;;;;;145.43;11.63;;;;;;;2.02;100.00;96863.47;4453158;32;20089;-72
2023/12/02 03:40:22;;;;;;;183.10;11.80;;;;;;;2.05;100.00;96858.06;4453116;32;20471;-72
2023/12/02 03:42:50;;;;;;;188.15;12.00;;;;;;;2.06;100.00;96851.94;4453410;32;20147;-72
2023/12/02 03:45:18;;;;;;;155.25;8.88;;;;;;;2.06;100.00;96859.66;4453101;32;20507;-72
2023/12/02 03:47:46;;;;;;;161.07;10.48;;;;;;;2.01;100.00;96851.50;4453035;32;20098;-72
2023/12/02 03:50:13;;;;;;;158.10;9.60;;;;;;;2.03;100.00;96847.84;4452992;32;20093;-72
2023/12/02 03:52:46;;;;;;;145.05;10.65;;;;;;;1.95;100.00;96840.78;4453433;32;20371;-72
2023/12/02 03:55:14;;;;;;;188.65;11.07;;;;;;;2.02;100.00;96833.31;4453070;32;20511;-72
2023/12/02 03:57:41;;;;;;;180.75;9.90;;;;;;;2.06;100.00;96844.19;4453180;32;20119;-72
2023/12/02 04:00:13;;;;;;;210.38;13.30;;;;;;;1.98;100.00;96844.03;4453083;32;20089;-72
2023/12/02 04:02:41;;;;;;;214.38;10.88;;;;;;;1.88;100.00;96842.22;4453187;32;20480;-72
2023/12/02 04:05:10;;;;;;;96.57;6.43;;;;;;;2.00;100.00;96848.13;4452815;32;20518;-72
2023/12/02 04:07:39;;;;;;;196.15;11.82;;;;;;;1.99;100.00;96859.38;4452891;32;20127;-72
2023/12/02 04:10:07;;;;;;;194.90;10.63;;;;;;;1.94;100.00;96852.03;4452765;32;20105;-72
2023/12/02 04:12:35;;;;;;;186.30;10.80;;;;;;;1.98;100.00;96846.59;4453535;32;20102;-72
2023/12/02 04:15:04;;;;;;;180.87;10.10;;;;;;;1.94;100.00;96856.41;4454828;32;20124;-72
2023/12/02 04:17:34;;;;;;;246.27;14.52;;;;;;;1.93;100.00;96854.75;4462361;32;20600;-72
2023/12/02 04:20:08;;;;;;;248.70;13.05;;;;;;;1.85;100.00;96863.16;4470229;32;20400;-72
2023/12/02 04:22:37;;;;;;;150.18;9.23;;;;;;;1.84;100.00;96856.34;4470299;32;20080;-72
2023/12/02 04:25:04;;;;;;;155.35;8.52;;;;;;;1.93;100.00;96855.56;4470396;32;20185;-72
2023/12/02 04:27:32;;;;;;;237.95;13.18;;;;;;;2.03;100.00;96853.03;4470268;32;20089;-72
2023/12/02 04:30:00;;;;;;;244.77;12.00;;;;;;;1.87;100.00;96845.75;4457193;32;20086;-72
2023/12/02 04:32:27;;;;;;;277.60;13.05;;;;;;;1.93;100.00;96849.59;4440380;32;20443;-72
2023/12/02 04:34:55;;;;;;;206.75;11.43;;;;;;;1.96;100.00;96854.50;4454563;32;20089;-72
2023/12/02 04:37:23;;;;;;;269.23;14.55;;;;;;;2.00;100.00;96861.03;4454559;32;20153;-72
2023/12/02 04:39:54;;;;;;;239.43;11.30;;;;;;;1.99;100.00;96858.59;4454444;32;20089;-72
2023/12/02 04:42:21;;;;;;;219.43;11.88;;;;;;;2.04;100.00;96854.63;4454697;32;20538;-72
2023/12/02 04:44:48;;;;;;;203.37;12.37;;;;;;;2.03;100.00;96845.28;4454461;32;20101;-72
2023/12/02 04:47:16;;;;;;;149.23;13.07;;;;;;;2.04;100.00;96841.72;4454344;32;20146;-72
2023/12/02 04:49:44;;;;;;;188.57;11.50;;;;;;;2.01;100.00;96843.75;4454460;32;20214;-72
2023/12/02 04:52:12;;;;;;;207.65;12.35;;;;;;;2.05;100.00;96838.19;4454401;32;20478;-72
2023/12/02 04:54:40;;;;;;;153.50;10.68;;;;;;;2.00;100.00;96840.38;4454440;32;20101;-72
2023/12/02 04:57:08;;;;;;;212.27;13.98;;;;;;;2.06;100.00;96834.69;4454241;32;20092;-72
2023/12/02 04:59:35;;;;;;;132.40;9.43;;;;;;;2.09;100.00;96838.75;4454142;32;20093;-72
2023/12/02 05:02:03;;;;;;;84.72;7.60;;;;;;;2.02;100.00;96827.34;4454386;32;20097;-72
2023/12/02 05:04:31;;;;;;;114.65;9.20;;;;;;;2.10;100.00;96819.72;4454449;32;20119;-72
2023/12/02 05:07:02;;;;;;;225.05;12.40;;;;;;;2.10;100.00;96817.94;4454423;32;20074;-72
2023/12/02 05:09:29;;;;;;;150.32;10.18;;;;;;;2.09;100.00;96812.91;4454356;32;20135;-72
2023/12/02 05:11:57;;;;;;;106.35;7.75;;;;;;;2.02;100.00;96822.16;4454252;32;20105;-72
2023/12/02 05:14:25;;;;;;;154.70;9.68;;;;;;;2.05;100.00;96811.56;4454426;32;20169;-72
2023/12/02 05:16:53;;;;;;;198.55;10.93;;;;;;;2.01;100.00;96823.09;4457596;32;20108;-72
2023/12/02 05:19:22;;;;;;;173.13;11.32;;;;;;;2.05;100.00;96811.56;4469846;32;20127;-72
2023/12/02 05:21:51;;;;;;;169.35;11.10;;;;;;;1.98;100.00;96818.22;4469900;32;20502;-72
2023/12/02 05:24:19;;;;;;;218.77;12.43;;;;;;;2.03;100.00;96818.62;4469226;32;20510;-72
2023/12/02 05:26:47;;;;;;;180.73;9.85;;;;;;;1.98;100.00;96826.75;4469691;32;20171;-72
2023/12/02 05:29:15;;;;;;;214.27;11.00;;;;;;;2.07;100.00;96813.06;4461939;32;20096;-72
2023/12/02 05:31:43;;;;;;;140.82;8.40;;;;;;;2.01;100.00;96805.03;4454131;32;20124;-72
2023/12/02 05:34:12;;;;;;;150.20;10.63;;;;;;;2.04;100.00;96815.09;4454246;32;20108;-72
2023/12/02 05:36:39;;;;;;;239.43;16.00;;;;;;;2.07;100.00;96809.66;4453918;32;20470;-72
2023/12/02 05:39:06;;;;;;;112.62;8.27;;;;;;;1.97;100.00;96811.41;4454121;32;20124;-72
2023/12/02 05:41:34;;;;;;;227.85;12.27;;;;;;;2.06;100.00;96808.84;4440014;32;20113;-72
2023/12/02 05:44:04;;;;;;;152.20;10.18;;;;;;;2.06;100.00;96819.19;4440118;32;20528;-72
2023/12/02 05:46:31;;;;;;;124.12;9.07;;;;;;;2.08;100.00;96813.88;4454122;32;20198;-72
2023/12/02 05:49:01;;;;;;;166.60;9.75;;;;;;;2.17;100.00;96831.16;4453965;32;20191;-72
2023/12/02 05:51:29;;;;;;;155.48;10.32;;;;;;;2.13;100.00;96824.63;4453866;32;20097;-72
2023/12/02 05:53:56;;;;;;;161.00;10.07;;;;;;;2.14;100.00;96813.34;4454026;32;20187;-72
2023/12/02 05:56:24;;;;;;;158.85;13.62;;;;;;;2.08;100.00;96817.28;4453866;32;20097;-72
2023/12/02 05:58:51;;;;;;;161.27;10.55;;;;;;;2.13;100.00;96816.88;4453974;32;20151;-72
2023/12/02 06:01:22;;;;;;;150.20;9.73;;;;;;;2.04;100.00;96815.09;4453702;32;20124;-72
2023/12/02 06:03:49;;;;;;;113.40;7.50;;;;;;;2.02;100.00;96807.47;4453998;32;20111;-72
2023/12/02 06:06:17;;;;;;;197.02;10.85;;;;;;;2.11;100.00;96804.09;4453879;32;20092;-72
2023/12/02 06:08:45;;;;;;;88.85;9.50;;;;;;;2.11;100.00;96808.47;4454170;32;20134;-72
2023/12/02 06:11:13;;;;;;;96.60;9.48;;;;;;;2.15;100.00;96827.06;4454108;32;20116;-72
2023/12/02 06:13:42;;;;;;;101.80;9.05;;;;;;;2.15;100.00;96827.91;4453787;32;20502;-72
2023/12/02 06:16:10;;;;;;;71.75;6.75;;;;;;;2.08;100.00;96842.28;4453870;32;20180;-72
2023/12/02 06:18:38;;;;;;;86.35;9.52;;;;;;;2.18;100.00;96844.91;4468452;32;20128;-72
2023/12/02 06:21:06;;;;;;;93.55;8.13;;;;;;;2.09;100.00;96842.16;4469418;32;20508;-72
2023/12/02 06:23:33;;;;;;;119.30;9.25;;;;;;;2.09;100.00;96846.50;4469439;32;20104;-72
2023/12/02 06:26:02;;;;;;;74.30;7.75;;;;;;;2.11;100.00;96852.38;4469704;32;20093;-72
2023/12/02 06:28:29;;;;;;;45.17;6.55;;;;;;;2.11;100.00;96860.91;4466071;32;20104;-72
2023/12/02 06:30:57;;;;;;;79.18;7.85;;;;;;;2.22;100.00;96864.34;4453926;32;20557;-72
2023/12/02 06:33:25;;;;;;;39.00;5.20;;;;;;;2.17;100.00;96864.75;4440114;32;20104;-72
2023/12/02 06:35:54;;;;;;;52.88;6.82;;;;;;;2.22;100.00;96865.16;4452933;32;20103;-72
2023/12/02 06:38:23;;;;;;;53.28;5.95;;;;;;;2.27;100.00;96872.50;4453615;32;20119;-72
2023/12/02 06:40:51;;;;;;;27.13;6.05;;;;;;;2.29;100.00;96874.03;4453845;32;20158;-72
2023/12/02 06:43:20;;;;;;;60.22;6.95;;;;;;;2.34;100.00;96872.81;4453848;32;20132;-72
2023/12/02 06:45:47;;;;;;;42.97;7.75;;;;;;;2.34;100.00;96865.06;4453752;32;20094;-72
2023/12/02 06:48:14;;;;;;;23.62;5.55;;;;;;;2.30;100.00;96870.50;4453647;32;20463;-72
2023/12/02 06:50:42;;;;;;;49.83;6.40;;;;;;;2.38;100.00;96869.03;4453624;32;20155;-72
2023/12/02 06:53:12;;;;;;;58.90;7.97;;;;;;;2.40;100.00;96867.13;4453583;32;20096;-72
2023/12/02 06:55:44;;;;;;;45.25;6.45;;;;;;;2.40;100.00;96862.75;4453596;32;20459;-72
2023/12/02 06:58:12;;;;;;;56.85;7.90;;;;;;;2.47;100.00;96863.88;4453610;32;20093;-72
2023/12/02 07:00:40;;;;;;;55.60;8.20;;;;;;;2.49;100.00;96866.31;4453571;32;20105;-72
2023/12/02 07:03:08;;;;;;;53.65;8.23;;;;;;;2.55;100.00;96870.97;4453447;32;20092;-72
2023/12/02 07:05:37;;;;;;;138.15;9.32;;;;;;;2.55;100.00;96870.97;4453695;32;20462;-72
2023/12/02 07:08:04;;;;;;;170.60;11.40;;;;;;;2.52;100.00;96881.56;4453552;32;20124;-72
2023/12/02 07:10:32;;;;;;;54.85;7.32;;;;;;;2.55;100.00;96875.31;4453654;32;20163;-72
2023/12/02 07:13:00;;;;;;;139.65;10.63;;;;;;;2.62;100.00;96879.81;4453520;32;20101;-72
2023/12/02 07:15:28;;;;;;;110.22;9.60;;;;;;;2.73;100.00;96888.41;4453360;32;20115;-72
2023/12/02 07:17:57;;;;;;;189.50;11.52;;;;;;;2.78;100.00;96887.03;4463805;32;20175;-72
2023/12/02 07:20:25;;;;;;;142.52;10.70;;;;;;;2.74;100.00;96864.16;4469220;32;20089;-72
2023/12/02 07:22:53;;;;;;;56.85;9.35;;;;;;;2.71;100.00;96864.44;4468842;32;20110;-72
2023/12/02 07:25:23;;;;;;;51.90;9.13;;;;;;;2.67;100.00;96864.72;4469022;32;20114;-72
2023/12/02 07:27:50;;;;;;;40.10;8.30;;;;;;;2.77;100.00;96861.31;4468866;32;20096;-72
2023/12/02 07:30:18;;;;;;;67.62;8.65;;;;;;;2.76;100.00;96852.75;4453954;32;20131;-72
2023/12/02 07:32:50;;;;;;;39.65;7.57;;;;;;;2.81;100.00;96844.59;4453296;32;20165;-72
2023/12/02 07:35:17;;;;;;;17.77;5.20;;;;;;;2.77;100.00;96854.38;4453336;32;20119;-72
2023/12/02 07:37:47;;;;;;;73.15;8.13;;;;;;;2.95;100.00;96846.78;4453446;32;20101;-72
2023/12/02 07:40:16;;;;;;;43.25;6.78;;;;;;;2.94;100.00;96847.72;4453337;32;20499;-72
2023/12/02 07:42:44;;;;;;;60.42;7.03;;;;;;;2.90;100.00;96846.34;4453236;32;20466;-72
2023/12/02 07:45:12;;;;;;;61.00;6.85;;;;;;;2.96;100.00;96843.22;4453332;32;20085;-72
2023/12/02 07:47:46;;;;;;;45.25;6.72;;;;;;;2.91;100.00;96839.44;4452799;32;20438;-72
2023/12/02 07:50:14;;;;;;;75.55;7.12;;;;;;;2.89;100.00;96831.78;4453025;32;20512;-72
2023/12/02 07:52:43;;;;;;;39.90;6.32;;;;;;;2.76;100.00;96836.44;4439072;32;20113;-72
2023/12/02 07:55:10;;;;;;;54.53;7.68;;;;;;;2.77;100.00;96831.13;4450306;32;80423;-72
2023/12/02 07:57:38;;;;;;;44.25;6.35;;;;;;;2.69;100.00;96827.56;4453199;32;20094;-72
2023/12/02 08:00:07;;;;;;;44.28;6.90;;;;;;;2.65;100.00;96843.34;4452968;32;20089;-72
2023/12/02 08:02:43;;;;;;;52.22;7.85;;;;;;;2.86;100.00;96839.81;4453035;32;20090;-72
2023/12/02 08:05:11;;;;;;;43.17;7.45;;;;;;;2.79;100.00;96842.12;4452997;32;20116;-72
2023/12/02 08:07:42;;;;;;;62.55;8.20;;;;;;;2.89;100.00;96836.94;4453068;32;20093;-72
2023/12/02 08:10:10;;;;;;;88.50;9.18;;;;;;;2.90;100.00;96841.16;4452782;32;20124;-72
2023/12/02 08:12:38;;;;;;;72.75;8.68;;;;;;;2.88;100.00;96858.59;4452850;32;20458;-72
2023/12/02 08:15:06;;;;;;;43.55;7.40;;;;;;;2.94;100.00;96850.31;4452573;32;20157;-72
2023/12/02 08:17:34;;;;;;;92.28;8.93;;;;;;;3.19;100.00;96855.84;4460768;32;20140;-72
2023/12/02 08:20:05;;;;;;;106.00;10.27;;;;;;;3.13;100.00;96867.56;4454298;32;20123;-72
2023/12/02 08:22:33;;;;;;;108.87;9.98;;;;;;;3.14;100.00;96868.41;4468272;32;20569;-72
2023/12/02 08:25:01;;;;;;;90.93;9.40;;;;;;;3.11;100.00;96882.41;4468166;32;20573;-72
2023/12/02 08:27:29;;;;;;;102.18;10.27;;;;;;;3.10;100.00;96877.38;4468196;32;20081;-72
2023/12/02 08:29:56;;;;;;;80.65;7.90;;;;;;;3.18;100.00;96882.69;4455595;32;20145;-72
2023/12/02 08:32:43;;;;;;;73.12;8.35;;;;;;;3.11;100.00;96899.72;4452638;32;20093;-72
2023/12/02 08:35:11;;;;;;;63.95;8.35;;;;;;;3.29;100.00;96926.53;4452540;32;20092;-72
2023/12/02 08:37:42;;;;;;;59.90;9.48;;;;;;;3.28;100.00;96916.31;4452811;32;20085;-72
2023/12/02 08:40:10;;;;;;;91.90;9.63;;;;;;;3.45;100.00;96915.63;4452481;32;20101;-72
2023/12/02 08:42:38;;;;;;;68.05;8.45;;;;;;;3.41;100.00;96905.66;4452358;32;20092;-72
2023/12/02 08:45:09;;;;;;;99.68;9.15;;;;;;;3.50;100.00;96907.47;4452288;32;20117;-72
2023/12/02 08:47:36;;;;;;;93.97;8.07;;;;;;;3.44;100.00;96895.06;4452454;32;20093;-72
2023/12/02 08:50:05;;;;;;;52.28;7.37;;;;;;;3.41;100.00;96903.09;4452218;32;20121;-72
2023/12/02 08:52:33;;;;;;;72.10;6.82;;;;;;;3.35;100.00;96909.66;4452524;32;20100;-72
2023/12/02 08:55:02;;;;;;;51.20;7.28;;;;;;;3.38;100.00;96909.38;4452031;32;20451;-72
2023/12/02 08:57:30;;;;;;;60.00;8.48;;;;;;;3.38;100.00;96899.81;4452293;32;20081;-72
2023/12/02 08:59:57;;;;;;;54.17;7.30;;;;;;;3.41;100.00;96895.31;4453740;32;20409;-72
2023/12/02 09:02:25;;;;;;;55.88;8.38;;;;;;;3.45;100.00;96894.09;4454353;32;20402;-72
2023/12/02 09:04:53;;;;;;;129.87;10.60;;;;;;;3.43;100.00;96893.44;4454425;32;20116;-72
2023/12/02 09:07:20;;;;;;;111.85;11.18;;;;;;;3.26;100.00;96880.22;4454644;32;20123;-72
2023/12/02 09:09:47;;;;;;;79.87;10.20;;;;;;;3.33;100.00;96894.25;4454380;32;20167;-72
2023/12/02 09:12:15;;;;;;;70.95;8.95;;;;;;;3.28;100.00;96891.25;4454398;32;20180;-72
2023/12/02 09:14:43;;;;;;;95.95;10.05;;;;;;;3.44;100.00;96888.12;4454516;32;20114;-72
2023/12/02 09:17:36;;;;;;;79.40;9.60;;;;;;;3.58;100.00;96884.25;4459802;32;20105;-72
2023/12/02 09:20:05;;;;;;;78.35;9.48;;;;;;;3.68;100.00;96894.59;4442908;32;20159;-72
2023/12/02 09:22:48;;;;;;;88.37;9.77;;;;;;;3.59;100.00;96885.06;4470278;32;20550;-72
2023/12/02 09:25:25;;;;;;;71.28;8.70;;;;;;;3.63;100.00;96892.41;4469128;32;20493;-72
2023/12/02 09:28:13;;;;;;;69.35;10.75;;;;;;;3.69;100.00;96891.87;4469978;32;20520;-72
2023/12/02 09:30:52;;;;;;;119.18;10.57;;;;;;;3.70;100.00;96890.91;4464066;32;20097;-72
2023/12/02 09:33:35;;;;;;;73.12;9.23;;;;;;;3.73;100.00;96887.22;4469039;32;20096;-72
2023/12/02 09:36:04;;;;;;;47.78;8.43;;;;;;;3.70;100.00;96874.56;4469079;32;20119;-72
2023/12/02 09:38:32;;;;;;;77.82;9.65;;;;;;;3.91;100.00;96901.06;4469169;32;20108;-72
2023/12/02 09:41:17;;;;;;;109.25;11.50;;;;;;;4.11;100.00;96890.63;4469250;32;20442;-72
2023/12/02 09:44:25;;;;;;;78.03;10.77;;;;;;;4.07;100.00;96890.13;4468948;32;20493;-72
2023/12/02 09:47:03;;;;;;;58.63;10.07;;;;;;;4.01;100.00;96882.91;4404603;32;20745;-72
2023/12/02 09:49:52;;;;;;;51.90;8.48;;;;;;;4.05;100.00;96909.34;4405355;32;20126;-73
2023/12/02 09:52:47;;;;;;;74.40;10.60;;;;;;;4.12;100.00;96875.91;4405038;32;20106;-73
2023/12/02 09:55:38;;;;;;;39.85;9.25;;;;;;;3.95;100.00;96880.91;4392141;32;20106;-73
2023/12/02 09:58:23;;;;;;;32.15;7.90;;;;;;;3.93;100.00;96869.84;4392555;32;20139;-73
2023/12/02 10:01:07;;;;;;;38.92;9.55;;;;;;;3.99;100.00;96860.69;4404908;32;20558;-73
2023/12/02 10:03:47;;;;;;;;;;;;;;;4.02;100.00;96853.44;4404984;32;20098;-73
2023/12/02 10:06:44;;;;;;;37.58;9.15;;;;;;;4.16;100.00;96839.19;4404892;32;20988;-73
2023/12/02 10:09:57;;;;;;;21.08;7.87;;;;;;;4.20;100.00;96856.09;4405147;32;20101;-73
2023/12/02 10:12:48;;;;;;;44.00;8.10;;;;;;;4.04;100.00;96846.37;4404709;32;20657;-73
2023/12/02 10:15:19;;;;;;;196.02;14.43;;;;;;;4.16;100.00;96843.56;4404549;32;20649;-73
2023/12/02 10:17:56;;;;;;;336.00;15.63;;;;;;;4.08;100.00;96842.50;4404378;32;20110;-73
2023/12/02 10:20:26;;;;;;;132.60;10.20;;;;;;;3.93;100.00;96838.75;4417248;32;20142;-73
2023/12/02 10:23:10;;;;;;;163.93;10.48;;;;;;;3.92;100.00;96844.87;4453031;32;20097;-73
2023/12/02 10:25:59;;;;;;;131.93;9.10;;;;;;;3.95;100.00;96847.22;4439195;32;20159;-73
2023/12/02 10:28:37;;;;;;;188.87;11.12;;;;;;;4.07;100.00;96848.66;4456232;32;20093;-73
2023/12/02 10:31:05;;;;;;;214.25;12.07;;;;;;;4.03;100.00;96836.94;4455134;32;20088;-73
2023/12/02 10:34:07;;;;;;;145.55;8.10;;;;;;;3.99;100.00;96829.59;4454982;32;20122;-74
2023/12/02 10:36:38;;;;;;;62.33;7.50;;;;;;;3.99;100.00;96850.34;4468503;32;20093;-73
2023/12/02 10:39:10;;;;;;;101.43;9.02;;;;;;;3.96;100.00;96835.88;4468890;32;20537;-74
2023/12/02 10:42:14;;;;;;;65.72;7.85;;;;;;;3.90;100.00;96826.09;4468673;32;20077;-73
2023/12/02 10:44:41;;;;;;;176.93;10.73;;;;;;;3.95;100.00;96818.72;4447305;32;20564;-73
2023/12/02 10:47:12;;;;;;;66.18;7.30;;;;;;;3.91;100.00;96796.66;4454344;32;20101;-73
2023/12/02 10:49:39;;;;;;;142.80;9.13;;;;;;;4.13;100.00;96786.84;4454723;32;20508;-73
2023/12/02 10:52:07;;;;;;;155.87;11.38;;;;;;;4.11;100.00;96822.47;4468486;32;20602;-74
2023/12/02 10:54:41;;;;;;;95.38;8.07;;;;;;;4.13;100.00;96804.97;4454825;32;20142;-74
2023/12/02 10:57:08;;;;;;;109.10;8.02;;;;;;;4.15;100.00;96810.81;4468350;32;20093;-74
2023/12/02 11:00:11;;;;;;;171.00;11.82;;;;;;;4.12;100.00;96793.81;4468774;32;20442;-74
2023/12/02 11:02:44;;;;;;;108.78;9.95;;;;;;;4.03;100.00;96787.72;4404241;32;20098;-74
2023/12/02 11:05:28;;;;;;;145.10;8.85;;;;;;;4.04;100.00;96772.97;4404517;32;20090;-74
2023/12/02 11:08:08;;;;;;;53.42;7.28;;;;;;;3.70;100.00;96766.59;4404032;32;20157;-74
2023/12/02 11:10:43;;;;;;;112.37;8.13;;;;;;;3.78;100.00;96763.28;4404705;32;20610;-74
2023/12/02 11:13:23;;;;;;;55.65;7.32;;;;;;;3.83;100.00;96750.75;4404280;32;20192;-74
2023/12/02 11:16:41;;;;;;;43.42;7.18;;;;;;;3.91;100.00;96753.41;4403653;32;20086;-74
2023/12/02 11:19:21;;;;;;;86.55;8.05;;;;;;;3.90;100.00;96738.81;4344587;33;20484;-74
2023/12/02 11:22:09;;;;;;;100.78;8.48;;;;;;;3.72;100.00;96749.19;4343610;33;20677;-74
2023/12/02 11:24:59;;;;;;;70.68;7.72;;;;;;;3.78;100.00;96744.38;4351553;32;20172;-74
2023/12/02 11:27:53;;;;;;;72.90;7.47;;;;;;;3.65;100.00;96750.69;4363564;32;20121;-74
2023/12/02 11:30:47;;;;;;;78.12;7.32;;;;;;;3.81;100.00;96757.03;4364782;32;20119;-74
2023/12/02 11:33:39;;;;;;;54.67;8.38;;;;;;;3.95;100.00;96761.72;4358390;32;20256;-74